Terminal Aerodrome Forecast
Issued by NWS Omaha/Valley, NE

Home | Current Version | Previous Version | Text Only | Print | Product List | Glossary Off
Versions: 1 2 3 4 5 6 7 8 9 10 11 12 13 14 15 16 17 18 19 20 21 22 23 24 25 26 27 28 29 30 31 32 33 34 35 36 37 38 39 40 41

000
FTUS43 KOAX 060814 AAB
TAFOFK
TAF AMD
KOFK 060814Z 0608/0706 35012KT P6SM BKN012 OVC090
     FM060900 35010KT 6SM -SHRA BR OVC050
     FM061400 34014G23KT P6SM OVC015
     FM062100 36015G25KT P6SM BKN050
     FM070100 36010KT P6SM SCT250=

USA.gov is the U.S. government's official web portal to all federal, state and local government web resources and services.